Time;durP1;ratioP1;P1;durP2;ratioP2;P2;SDS_P1;SDS_P2;PMS_P1;PMS_P2;Temp;Humidity;BMP_temperature;BMP_pressure;BME280_temperature;BME280_humidity;BME280_pressure;Samples;Min_cycle;Max_cycle;Signal;HPM_P1;HPM_P2
2023/01/03 00:01:55;;;;;;;15.98;6.68;;;5.40;99.90;;;;;;5059963;28;20013;-69
2023/01/03 00:04:21;;;;;;;21.52;6.35;;;5.50;99.90;;;;;;5061256;28;20037;-70
2023/01/03 00:06:49;;;;;;;18.88;7.35;;;5.40;99.90;;;;;;5061000;28;20017;-70
2023/01/03 00:09:18;;;;;;;26.42;7.68;;;5.40;99.90;;;;;;5058688;28;20025;-68
2023/01/03 00:14:34;;;;;;;27.00;7.32;;;5.50;99.90;;;;;;5059523;28;20040;-69
2023/01/03 00:17:01;;;;;;;22.38;7.45;;;5.50;99.90;;;;;;5059352;28;20029;-69
2023/01/03 00:19:28;;;;;;;16.63;6.85;;;5.40;99.90;;;;;;5042524;28;20050;-70
2023/01/03 00:21:55;;;;;;;19.85;6.68;;;5.40;99.90;;;;;;5059844;28;20394;-70
2023/01/03 00:24:21;;;;;;;21.25;6.55;;;5.40;99.90;;;;;;5043455;28;20380;-68
2023/01/03 00:26:47;;;;;;;24.05;6.97;;;5.40;99.90;;;;;;5060876;28;20111;-68
2023/01/03 00:29:13;;;;;;;19.83;6.95;;;5.40;99.90;;;;;;5060431;28;20032;-69
2023/01/03 00:31:39;;;;;;;19.60;7.13;;;5.50;99.90;;;;;;5060989;28;20036;-69
2023/01/03 00:34:05;;;;;;;17.80;7.45;;;5.40;99.90;;;;;;5060659;28;20036;-70
2023/01/03 00:36:31;;;;;;;26.35;7.18;;;5.40;99.90;;;;;;5061060;28;20024;-69
2023/01/03 00:38:57;;;;;;;18.10;7.10;;;5.40;99.90;;;;;;5043857;28;20059;-70
2023/01/03 00:41:23;;;;;;;24.55;7.95;;;5.30;99.90;;;;;;5059014;28;20040;-68
2023/01/03 00:43:49;;;;;;;20.30;7.25;;;5.30;99.90;;;;;;5056061;28;20055;-70
2023/01/03 00:46:16;;;;;;;21.13;7.35;;;5.30;99.90;;;;;;5055355;28;20049;-71
2023/01/03 00:48:42;;;;;;;19.48;7.05;;;5.20;99.90;;;;;;5050842;28;20077;-68
2023/01/03 00:51:14;;;;;;;16.13;6.45;;;5.30;99.90;;;;;;5050196;28;20047;-70
2023/01/03 00:53:41;;;;;;;18.25;6.35;;;5.30;99.90;;;;;;5055938;28;21021;-69
2023/01/03 00:56:12;;;;;;;23.40;7.03;;;5.20;99.90;;;;;;5055751;28;20521;-69
2023/01/03 00:58:38;;;;;;;13.88;6.35;;;5.40;99.90;;;;;;5050743;28;20040;-69
2023/01/03 01:01:10;;;;;;;15.18;6.05;;;5.30;99.90;;;;;;5037088;28;20029;-70
2023/01/03 01:03:37;;;;;;;20.40;6.18;;;5.30;99.90;;;;;;5059511;28;20033;-70
2023/01/03 01:06:14;;;;;;;18.90;7.20;;;5.30;99.90;;;;;;5059579;28;21400;-68
2023/01/03 01:08:41;;;;;;;15.10;6.47;;;5.30;99.90;;;;;;5059059;28;20124;-71
2023/01/03 01:11:07;;;;;;;18.77;6.90;;;5.20;99.90;;;;;;5058076;28;20029;-70
2023/01/03 01:13:33;;;;;;;21.88;7.07;;;5.20;99.90;;;;;;5058915;28;20047;-69
2023/01/03 01:16:13;;;;;;;26.70;8.20;;;5.20;99.90;;;;;;5058215;28;20067;-70
2023/01/03 01:18:40;;;;;;;15.73;7.20;;;5.20;99.90;;;;;;5059198;28;20087;-69
2023/01/03 01:21:07;;;;;;;32.92;8.88;;;5.20;99.90;;;;;;5058994;28;20081;-70
2023/01/03 01:23:35;;;;;;;14.40;7.35;;;5.20;99.90;;;;;;5058721;28;20122;-68
2023/01/03 01:26:01;;;;;;;29.67;8.88;;;5.10;99.90;;;;;;5058617;28;20048;-68
2023/01/03 01:28:27;;;;;;;24.90;7.95;;;5.10;99.90;;;;;;5057667;28;20021;-68
2023/01/03 01:30:53;;;;;;;23.45;7.82;;;5.10;99.90;;;;;;5058997;28;20076;-68
2023/01/03 01:33:18;;;;;;;23.90;8.50;;;5.10;99.90;;;;;;5058393;28;20096;-70
2023/01/03 01:35:44;;;;;;;21.88;8.45;;;5.10;99.90;;;;;;5058386;28;20037;-69
2023/01/03 01:38:09;;;;;;;20.50;8.95;;;5.00;99.90;;;;;;5058773;28;20099;-70
2023/01/03 01:40:35;;;;;;;24.65;8.85;;;5.00;99.90;;;;;;5058538;28;20029;-69
2023/01/03 01:46:05;;;;;;;28.30;8.98;;;5.00;99.90;;;;;;5060331;28;20079;-70
2023/01/03 01:48:32;;;;;;;25.67;8.93;;;4.90;99.90;;;;;;5059428;28;20017;-69
2023/01/03 01:50:58;;;;;;;31.13;9.13;;;5.00;99.90;;;;;;5059755;28;20108;-69
2023/01/03 01:53:28;;;;;;;31.23;9.88;;;5.10;99.90;;;;;;5059804;28;20719;-69
2023/01/03 01:56:07;;;;;;;26.80;9.73;;;4.90;99.90;;;;;;5041904;28;20037;-67
2023/01/03 01:58:36;;;;;;;27.17;9.82;;;4.90;99.90;;;;;;5059292;28;20025;-68
2023/01/03 02:01:07;;;;;;;30.58;9.40;;;4.90;99.90;;;;;;5042238;28;20028;-69
2023/01/03 02:03:32;;;;;;;27.52;10.32;;;4.90;99.90;;;;;;5059843;28;20029;-69
2023/01/03 02:06:00;;;;;;;35.03;11.10;;;4.90;99.90;;;;;;5059677;28;20036;-68
2023/01/03 02:08:27;;;;;;;27.55;10.55;;;4.90;99.90;;;;;;5059018;28;20117;-71
2023/01/03 02:11:15;;;;;;;22.75;10.75;;;4.90;99.90;;;;;;5041708;28;20056;-69
2023/01/03 02:14:12;;;;;;;25.42;10.23;;;4.90;99.90;;;;;;5058119;28;20021;-69
2023/01/03 02:16:59;;;;;;;21.20;8.75;;;4.80;99.90;;;;;;5058235;28;20033;-70
2023/01/03 02:19:43;;;;;;;32.78;10.10;;;4.80;99.90;;;;;;5058909;28;20024;-68
2023/01/03 02:22:11;;;;;;;31.60;9.38;;;4.80;99.90;;;;;;5054504;28;20160;-69
2023/01/03 02:25:05;;;;;;;24.17;10.60;;;4.80;99.90;;;;;;5049686;28;20083;-68
2023/01/03 02:27:56;;;;;;;28.10;9.50;;;4.80;99.90;;;;;;5049813;28;20088;-68
2023/01/03 02:30:39;;;;;;;22.40;9.93;;;4.70;99.90;;;;;;5041016;28;20286;-69
2023/01/03 02:33:21;;;;;;;32.40;10.52;;;4.70;99.90;;;;;;5040999;28;20036;-69
2023/01/03 02:36:08;;;;;;;29.38;10.25;;;4.70;99.90;;;;;;5049323;28;20469;-69
2023/01/03 02:38:45;;;;;;;39.35;10.90;;;4.70;99.90;;;;;;5049749;28;20076;-68
2023/01/03 02:41:27;;;;;;;21.15;9.23;;;4.70;99.90;;;;;;5049647;28;20036;-67
2023/01/03 02:43:56;;;;;;;28.98;10.07;;;4.60;99.90;;;;;;5049678;28;20033;-69
2023/01/03 02:46:44;;;;;;;23.65;9.98;;;4.60;99.90;;;;;;5052032;28;20017;-68
2023/01/03 02:49:18;;;;;;;23.02;10.25;;;4.60;99.90;;;;;;5053511;28;20048;-67
2023/01/03 02:51:45;;;;;;;;;;;4.60;99.90;;;;;;5053482;28;20021;-70
2023/01/03 02:54:16;;;;;;;22.67;9.55;;;4.60;99.90;;;;;;5035932;28;19928;-69
2023/01/03 02:56:53;;;;;;;26.55;10.10;;;4.60;99.90;;;;;;5043896;28;20079;-69
2023/01/03 02:59:31;;;;;;;23.02;9.68;;;4.50;99.90;;;;;;5052893;28;20051;-68
2023/01/03 03:01:58;;;;;;;25.50;9.00;;;4.60;99.90;;;;;;5062401;28;20768;-68
2023/01/03 03:04:24;;;;;;;24.50;10.55;;;4.50;99.90;;;;;;5060443;28;20025;-69
2023/01/03 03:06:59;;;;;;;19.17;9.52;;;4.50;99.90;;;;;;5052865;28;20191;-69
2023/01/03 03:09:24;;;;;;;20.52;9.85;;;4.50;99.90;;;;;;5052709;28;20020;-67
2023/01/03 03:14:47;;;;;;;28.65;9.60;;;4.40;99.90;;;;;;5061771;28;20158;-69
2023/01/03 03:17:20;;;;;;;26.05;9.90;;;4.40;99.90;;;;;;5061535;28;20093;-69
2023/01/03 03:25:36;;;;;;;22.42;10.48;;;4.30;99.90;;;;;;5062128;28;20456;-70
2023/01/03 03:30:55;;;;;;;25.98;10.75;;;4.30;99.90;;;;;;5061669;28;20043;-69
2023/01/03 03:33:23;;;;;;;37.65;10.85;;;4.30;99.90;;;;;;5062051;28;21388;-68
2023/01/03 03:35:52;;;;;;;31.27;10.73;;;4.20;99.90;;;;;;5044379;28;20041;-67
2023/01/03 03:38:28;;;;;;;30.00;11.15;;;4.20;99.90;;;;;;5061542;28;20049;-69
2023/01/03 03:47:37;;;;;;;27.47;10.40;;;4.10;99.90;;;;;;5061981;28;20528;-69
2023/01/03 03:50:24;;;;;;;23.60;10.38;;;4.20;99.90;;;;;;5061494;28;20162;-67
2023/01/03 03:52:53;;;;;;;31.33;11.40;;;4.10;99.90;;;;;;5061684;28;20051;-68
2023/01/03 03:55:33;;;;;;;31.17;10.75;;;4.10;99.90;;;;;;5061015;28;20035;-67
2023/01/03 03:58:25;;;;;;;25.45;11.35;;;4.10;99.90;;;;;;5060799;28;20659;-69
2023/01/03 04:00:51;;;;;;;33.63;10.85;;;4.10;99.90;;;;;;5061223;28;20025;-70
2023/01/03 04:03:19;;;;;;;29.77;10.80;;;4.10;99.90;;;;;;5061291;28;20029;-70
2023/01/03 04:06:00;;;;;;;24.80;10.60;;;4.00;99.90;;;;;;5061594;28;20024;-69
2023/01/03 04:08:26;;;;;;;23.02;9.95;;;4.00;99.90;;;;;;5061060;28;20021;-68
2023/01/03 04:11:04;;;;;;;27.33;11.15;;;4.00;99.90;;;;;;5060682;28;20028;-70
2023/01/03 04:13:30;;;;;;;25.70;10.98;;;4.00;99.90;;;;;;5061138;28;20048;-70
2023/01/03 04:15:56;;;;;;;31.38;10.80;;;4.00;99.90;;;;;;5061257;28;20406;-67
2023/01/03 04:18:21;;;;;;;24.65;10.48;;;4.00;99.90;;;;;;5043040;28;20032;-69
2023/01/03 04:20:47;;;;;;;28.42;11.25;;;4.00;99.90;;;;;;5060770;28;20144;-68
2023/01/03 04:23:13;;;;;;;28.15;10.50;;;3.90;99.90;;;;;;5053986;28;20496;-69
2023/01/03 04:25:38;;;;;;;32.55;10.07;;;3.90;99.90;;;;;;5058444;28;20033;-69
2023/01/03 04:28:04;;;;;;;26.92;9.77;;;3.90;99.90;;;;;;5050669;28;20028;-68
2023/01/03 04:30:29;;;;;;;23.95;10.00;;;3.90;99.90;;;;;;5050874;28;20080;-69
2023/01/03 04:32:56;;;;;;;26.55;11.27;;;3.90;99.90;;;;;;5040684;28;20018;-68
2023/01/03 04:35:21;;;;;;;29.42;10.60;;;3.90;99.90;;;;;;5050065;28;20030;-68
2023/01/03 04:37:47;;;;;;;23.55;10.55;;;3.80;99.90;;;;;;5050973;28;20048;-69
2023/01/03 04:40:13;;;;;;;29.33;10.63;;;3.80;99.90;;;;;;5060171;28;20029;-70
2023/01/03 04:45:23;;;;;;;28.45;9.75;;;3.80;99.90;;;;;;5050656;28;20089;-68
2023/01/03 04:47:48;;;;;;;26.92;11.25;;;3.80;99.90;;;;;;5050331;28;20025;-69
2023/01/03 04:50:14;;;;;;;24.80;9.70;;;3.80;99.90;;;;;;5050568;28;20137;-69
2023/01/03 04:52:39;;;;;;;23.38;10.60;;;3.70;99.90;;;;;;5050764;28;20051;-70
2023/01/03 04:55:06;;;;;;;23.35;9.77;;;3.70;99.90;;;;;;5038693;28;20029;-67
2023/01/03 04:57:31;;;;;;;28.30;10.05;;;3.70;99.90;;;;;;5054108;28;20053;-69
2023/01/03 04:59:57;;;;;;;23.20;9.82;;;3.70;99.90;;;;;;5049253;28;20036;-68
2023/01/03 05:02:22;;;;;;;23.85;10.70;;;3.60;99.90;;;;;;5037045;28;20351;-68
2023/01/03 05:04:48;;;;;;;25.45;10.57;;;3.60;99.90;;;;;;5056946;28;20036;-68
2023/01/03 05:07:13;;;;;;;25.02;10.80;;;3.60;99.90;;;;;;5032674;28;20095;-68
2023/01/03 05:09:40;;;;;;;25.67;11.60;;;3.60;99.90;;;;;;5050013;28;20476;-69
2023/01/03 05:12:06;;;;;;;22.40;10.63;;;3.50;99.90;;;;;;5050550;28;20029;-69
2023/01/03 05:14:32;;;;;;;29.08;11.23;;;3.50;99.90;;;;;;5053504;28;20055;-69
2023/01/03 05:16:57;;;;;;;40.20;11.73;;;3.50;99.90;;;;;;5056190;28;20080;-68
2023/01/03 05:19:23;;;;;;;33.03;10.85;;;3.50;99.90;;;;;;5057599;28;20036;-68
2023/01/03 05:27:17;;;;;;;32.85;11.43;;;3.40;99.90;;;;;;5046898;28;20055;-68
2023/01/03 05:29:43;;;;;;;32.78;11.48;;;3.40;99.90;;;;;;5054399;28;20033;-69
2023/01/03 05:32:08;;;;;;;26.92;11.50;;;3.40;99.90;;;;;;5054872;28;20025;-69
2023/01/03 05:34:34;;;;;;;27.38;11.43;;;3.40;99.90;;;;;;5050040;28;20044;-68
2023/01/03 05:36:59;;;;;;;26.85;11.43;;;3.40;99.90;;;;;;5050173;28;20049;-68
2023/01/03 05:39:25;;;;;;;31.00;10.52;;;3.40;99.90;;;;;;5049610;28;20061;-68
2023/01/03 05:42:00;;;;;;;26.40;11.55;;;3.40;99.90;;;;;;5059406;28;20036;-68
2023/01/03 05:44:30;;;;;;;27.52;11.38;;;3.40;99.90;;;;;;5052885;28;20025;-68
2023/01/03 05:46:57;;;;;;;31.25;11.45;;;3.50;99.90;;;;;;5055907;28;20167;-68
2023/01/03 05:49:24;;;;;;;25.05;10.90;;;3.50;99.90;;;;;;5036490;28;20035;-68
2023/01/03 05:51:49;;;;;;;34.28;12.02;;;3.50;99.90;;;;;;5056239;28;20115;-69
2023/01/03 05:54:16;;;;;;;27.00;11.60;;;3.50;99.90;;;;;;5059419;28;20512;-67
2023/01/03 05:56:42;;;;;;;28.70;10.00;;;3.50;99.90;;;;;;5059830;28;20047;-68
2023/01/03 05:59:08;;;;;;;31.75;10.13;;;3.50;99.90;;;;;;5046039;28;20021;-68
2023/01/03 06:01:33;;;;;;;28.08;11.43;;;3.50;99.90;;;;;;5049552;28;20459;-67
2023/01/03 06:03:59;;;;;;;26.52;11.38;;;3.40;99.90;;;;;;5049475;28;20029;-68
2023/01/03 06:06:25;;;;;;;23.00;10.63;;;3.40;99.90;;;;;;5049937;28;20036;-67
2023/01/03 06:08:51;;;;;;;28.35;11.07;;;3.40;99.90;;;;;;5049438;28;20028;-67
2023/01/03 06:11:17;;;;;;;35.50;11.82;;;3.40;99.90;;;;;;5049275;28;20440;-69
2023/01/03 06:13:43;;;;;;;34.75;11.80;;;3.40;99.90;;;;;;5058673;28;20033;-69
2023/01/03 06:18:56;;;;;;;28.85;11.43;;;3.30;99.90;;;;;;5055523;28;20032;-67
2023/01/03 06:21:22;;;;;;;32.97;12.48;;;3.30;99.90;;;;;;5051659;28;20030;-69
2023/01/03 06:23:48;;;;;;;32.92;12.35;;;3.30;99.90;;;;;;5052931;28;20041;-69
2023/01/03 06:26:15;;;;;;;31.17;11.88;;;3.30;99.90;;;;;;5054502;28;20021;-67
2023/01/03 06:28:41;;;;;;;34.78;12.50;;;3.30;99.90;;;;;;5057790;28;20029;-67
2023/01/03 06:31:07;;;;;;;35.95;12.77;;;3.30;99.90;;;;;;5053167;28;20855;-70
2023/01/03 06:33:33;;;;;;;35.47;13.05;;;3.30;99.90;;;;;;5053046;28;20045;-71
2023/01/03 06:36:07;;;;;;;36.28;13.98;;;3.30;99.90;;;;;;5052490;28;20041;-69
2023/01/03 06:38:32;;;;;;;;;;;3.20;99.90;;;;;;5053053;28;20053;-68
2023/01/03 06:40:58;;;;;;;32.70;12.07;;;3.20;99.90;;;;;;5040075;28;19909;-68
2023/01/03 06:43:24;;;;;;;33.95;12.38;;;3.20;99.90;;;;;;5053198;28;20021;-67
2023/01/03 06:54:07;;;;;;;31.85;13.10;;;3.20;99.90;;;;;;5053475;28;20083;-68
2023/01/03 06:56:33;;;;;;;39.30;13.50;;;3.10;99.90;;;;;;5052926;28;20025;-67
2023/01/03 06:58:58;;;;;;;35.47;14.82;;;3.10;99.90;;;;;;5052914;28;20043;-67
2023/01/03 07:01:24;;;;;;;38.33;14.40;;;3.10;99.90;;;;;;5056315;28;20483;-67
2023/01/03 07:03:50;;;;;;;38.80;14.75;;;3.10;99.90;;;;;;5059273;28;20017;-68
2023/01/03 07:06:15;;;;;;;34.58;13.45;;;3.20;99.90;;;;;;5053648;28;20145;-68
2023/01/03 07:08:41;;;;;;;38.75;15.10;;;3.20;99.90;;;;;;5056001;28;20029;-67
2023/01/03 07:11:08;;;;;;;41.03;15.13;;;3.20;99.90;;;;;;5045570;28;20052;-69
2023/01/03 07:16:19;;;;;;;46.65;15.25;;;3.40;99.90;;;;;;5043342;28;20158;-68
2023/01/03 07:18:49;;;;;;;40.03;15.68;;;3.30;99.90;;;;;;5049487;28;20029;-69
2023/01/03 07:21:15;;;;;;;37.65;15.73;;;3.40;99.90;;;;;;5041804;28;20028;-69
2023/01/03 07:23:41;;;;;;;41.17;16.73;;;3.40;99.90;;;;;;5053859;28;20032;-68
2023/01/03 07:26:07;;;;;;;40.85;15.88;;;3.40;99.90;;;;;;5052931;28;20116;-69
2023/01/03 07:28:32;;;;;;;36.45;16.15;;;3.40;99.90;;;;;;5035390;28;20021;-67
2023/01/03 07:31:03;;;;;;;36.42;14.90;;;3.40;99.90;;;;;;5052810;28;20037;-67
2023/01/03 07:33:29;;;;;;;39.08;15.10;;;3.40;99.90;;;;;;5052158;28;20852;-67
2023/01/03 07:36:06;;;;;;;39.88;16.23;;;3.40;99.90;;;;;;5050715;28;20135;-70
2023/01/03 07:38:32;;;;;;;37.00;16.00;;;3.40;99.90;;;;;;5042769;28;20029;-69
2023/01/03 07:40:59;;;;;;;36.28;15.60;;;3.50;99.90;;;;;;5061989;28;20072;-69
2023/01/03 07:43:37;;;;;;;46.72;16.20;;;3.50;99.90;;;;;;5054763;28;20025;-67
2023/01/03 07:46:12;;;;;;;49.72;16.88;;;3.50;99.90;;;;;;5052062;28;20029;-68
2023/01/03 07:48:38;;;;;;;46.85;17.17;;;3.50;99.90;;;;;;5051968;28;20056;-69
2023/01/03 07:51:06;;;;;;;41.50;16.85;;;3.50;99.90;;;;;;5051961;28;20029;-67
2023/01/03 07:53:32;;;;;;;45.80;17.67;;;3.50;99.90;;;;;;5052090;28;20574;-68
2023/01/03 07:56:10;;;;;;;43.72;16.25;;;3.50;99.90;;;;;;5059928;28;20075;-69
2023/01/03 07:58:36;;;;;;;43.47;15.60;;;3.50;99.90;;;;;;5056883;28;20029;-68
2023/01/03 08:01:15;;;;;;;43.40;16.90;;;3.60;99.90;;;;;;5053196;28;20029;-69
2023/01/03 08:03:41;;;;;;;37.92;17.13;;;3.50;99.90;;;;;;5053818;28;20024;-67
2023/01/03 08:06:10;;;;;;;46.42;17.55;;;3.50;99.90;;;;;;5054243;28;20029;-69
2023/01/03 08:08:36;;;;;;;39.17;15.18;;;3.40;99.90;;;;;;5058939;28;20087;-67
2023/01/03 08:13:46;;;;;;;89.15;35.95;;;3.60;99.90;;;;;;5055459;28;20394;-69
2023/01/03 08:16:14;;;;;;;48.60;20.60;;;3.60;99.90;;;;;;5053905;28;20041;-67
2023/01/03 08:18:41;;;;;;;46.90;19.00;;;3.60;99.90;;;;;;5052999;28;20025;-67
2023/01/03 08:21:09;;;;;;;58.47;29.05;;;3.70;99.90;;;;;;5052043;28;20025;-68
2023/01/03 08:23:35;;;;;;;46.42;21.42;;;3.70;99.90;;;;;;5054869;28;20063;-68
2023/01/03 08:26:06;;;;;;;44.47;18.73;;;3.80;99.90;;;;;;5051682;28;20030;-67
2023/01/03 08:28:33;;;;;;;46.33;17.63;;;3.80;99.90;;;;;;5039590;28;20055;-69
2023/01/03 08:31:01;;;;;;;51.65;20.88;;;3.80;99.90;;;;;;5053697;28;20025;-68
2023/01/03 08:33:30;;;;;;;54.17;20.70;;;3.90;99.90;;;;;;5051632;28;20116;-68
2023/01/03 08:36:02;;;;;;;45.45;19.10;;;3.90;99.90;;;;;;5050870;28;20037;-68
2023/01/03 08:38:31;;;;;;;55.42;20.63;;;4.00;99.90;;;;;;5052008;28;20025;-68
2023/01/03 08:40:59;;;;;;;58.65;24.92;;;4.00;99.90;;;;;;5051154;28;20025;-67
2023/01/03 08:43:26;;;;;;;53.60;21.85;;;4.10;99.90;;;;;;5050214;28;20032;-68
2023/01/03 08:45:52;;;;;;;66.80;28.27;;;4.10;99.90;;;;;;5053404;28;20041;-67
2023/01/03 08:48:20;;;;;;;56.80;23.05;;;4.10;99.90;;;;;;5053374;28;20032;-68
2023/01/03 08:50:46;;;;;;;48.95;19.80;;;4.20;99.90;;;;;;5043166;28;20028;-70
2023/01/03 08:53:12;;;;;;;62.78;25.95;;;4.30;99.90;;;;;;5054836;28;20035;-69
2023/01/03 08:55:38;;;;;;;69.82;30.05;;;4.30;99.90;;;;;;5050581;28;20033;-69
2023/01/03 08:58:04;;;;;;;78.90;29.80;;;4.30;99.90;;;;;;5056423;28;20025;-68
2023/01/03 09:00:29;;;;;;;58.55;22.55;;;4.40;99.90;;;;;;5053975;28;20576;-68
2023/01/03 09:02:59;;;;;;;57.05;24.23;;;4.40;99.90;;;;;;5056660;28;20085;-69
2023/01/03 09:05:25;;;;;;;53.50;20.88;;;4.50;99.90;;;;;;5051007;28;20029;-68
2023/01/03 09:07:53;;;;;;;50.38;19.33;;;4.50;99.90;;;;;;5051875;28;20033;-67
2023/01/03 09:10:19;;;;;;;53.05;21.02;;;4.50;99.90;;;;;;5052456;28;20033;-68
2023/01/03 09:12:44;;;;;;;47.85;20.02;;;4.60;99.90;;;;;;5051797;28;20025;-70
2023/01/03 09:15:10;;;;;;;54.70;20.95;;;4.70;99.90;;;;;;5055559;28;20045;-68
2023/01/03 09:17:36;;;;;;;51.45;20.55;;;4.70;99.90;;;;;;5056742;28;20025;-68
2023/01/03 09:20:01;;;;;;;48.40;21.10;;;4.70;99.90;;;;;;5059707;28;20021;-67
2023/01/03 09:22:27;;;;;;;56.88;24.17;;;4.80;99.90;;;;;;5050378;28;20067;-68
2023/01/03 09:24:54;;;;;;;52.78;22.83;;;4.90;99.90;;;;;;5052893;28;20086;-66
2023/01/03 09:27:20;;;;;;;50.38;20.75;;;5.20;99.90;;;;;;5055571;28;20033;-68
2023/01/03 09:29:47;;;;;;;54.35;23.58;;;5.60;99.90;;;;;;5053855;28;20043;-69
2023/01/03 09:32:13;;;;;;;54.78;25.27;;;6.00;99.90;;;;;;5047906;28;20025;-68
2023/01/03 09:34:39;;;;;;;54.10;22.08;;;6.40;99.90;;;;;;5055954;28;20041;-67
2023/01/03 09:37:05;;;;;;;41.92;19.48;;;6.80;99.90;;;;;;5059952;28;20029;-67
2023/01/03 09:39:30;;;;;;;45.70;19.27;;;7.10;99.90;;;;;;5059611;28;20029;-68
2023/01/03 09:44:42;;;;;;;46.08;19.65;;;7.80;99.90;;;;;;5050884;28;20036;-68
2023/01/03 09:47:17;;;;;;;45.58;19.92;;;8.20;99.90;;;;;;5052802;28;20033;-68
2023/01/03 09:49:42;;;;;;;44.28;18.52;;;8.50;99.90;;;;;;5050092;28;20035;-68
2023/01/03 10:04:44;;;;;;;40.67;17.88;;;9.20;99.90;;;;;;5055114;28;20052;-70
2023/01/03 10:07:20;;;;;;;40.05;17.70;;;9.50;99.90;;;;;;5056100;28;20055;-71
2023/01/03 10:10:04;;;;;;;39.60;17.92;;;9.70;99.90;;;;;;5057413;28;20033;-68
2023/01/03 10:12:52;;;;;;;37.28;17.45;;;9.70;99.90;;;;;;5060689;28;20017;-68
2023/01/03 10:15:34;;;;;;;48.92;19.45;;;9.60;99.90;;;;;;5056091;28;20065;-70
2023/01/03 10:18:19;;;;;;;38.28;18.02;;;9.50;99.90;;;;;;5057150;28;20016;-68
2023/01/03 10:20:45;;;;;;;43.53;18.98;;;9.20;99.90;;;;;;5061788;28;20024;-67
2023/01/03 10:23:10;;;;;;;68.60;28.33;;;9.20;99.90;;;;;;5056778;28;20041;-69
2023/01/03 10:25:38;;;;;;;61.22;25.77;;;9.20;99.90;;;;;;5057186;28;20403;-68
2023/01/03 10:28:10;;;;;;;48.42;22.73;;;9.20;99.90;;;;;;5058681;28;20020;-67
2023/01/03 10:31:01;;;;;;;56.55;26.60;;;9.20;99.90;;;;;;5059950;28;20509;-68
2023/01/03 10:33:37;;;;;;;41.53;20.25;;;9.30;99.90;;;;;;5061288;28;20526;-66
2023/01/03 10:36:03;;;;;;;40.83;18.33;;;9.40;99.90;;;;;;5058269;28;20137;-67
2023/01/03 10:38:28;;;;;;;45.40;19.30;;;9.50;99.90;;;;;;5057244;28;20359;-69
2023/01/03 10:40:58;;;;;;;42.50;18.75;;;9.70;99.90;;;;;;5056510;28;20021;-67
2023/01/03 10:43:44;;;;;;;42.08;19.42;;;10.00;99.90;;;;;;5057323;28;20022;-69
2023/01/03 10:46:20;;;;;;;52.10;22.95;;;10.30;99.90;;;;;;5048087;28;20375;-68
2023/01/03 10:48:48;;;;;;;51.63;25.20;;;10.30;99.90;;;;;;5058177;28;20394;-68
2023/01/03 10:51:34;;;;;;;48.33;23.17;;;10.30;99.90;;;;;;5059418;28;20720;-67
2023/01/03 10:54:11;;;;;;;49.50;23.67;;;10.30;99.90;;;;;;5065484;28;20052;-67
2023/01/03 10:56:37;;;;;;;52.75;24.45;;;10.30;99.90;;;;;;5058990;28;20040;-70
2023/01/03 10:59:09;;;;;;;56.42;23.85;;;10.20;99.90;;;;;;5062912;28;20036;-67
2023/01/03 11:01:35;;;;;;;57.15;25.95;;;10.10;99.90;;;;;;5053736;28;20672;-66
2023/01/03 11:04:18;;;;;;;49.08;21.65;;;9.90;99.90;;;;;;5057927;28;20064;-68
2023/01/03 11:07:02;;;;;;;44.55;20.52;;;9.60;99.90;;;;;;5042458;28;20025;-69
2023/01/03 11:09:50;;;;;;;45.30;21.13;;;9.30;99.90;;;;;;5056920;28;20025;-67
2023/01/03 11:12:28;;;;;;;44.13;20.77;;;8.60;99.90;;;;;;5061262;28;20021;-68
2023/01/03 11:14:55;;;;;;;46.83;21.83;;;8.20;99.90;;;;;;5061217;28;20047;-67
2023/01/03 11:17:23;;;;;;;53.42;23.00;;;8.00;99.90;;;;;;5045922;28;20028;-66
2023/01/03 11:19:50;;;;;;;48.33;22.98;;;7.80;99.90;;;;;;5054464;28;20088;-68
2023/01/03 11:22:36;;;;;;;51.42;24.15;;;7.60;99.90;;;;;;5055136;28;20414;-68
2023/01/03 11:25:25;;;;;;;61.30;27.17;;;7.40;99.90;;;;;;5052999;28;20107;-68
2023/01/03 11:27:50;;;;;;;69.75;29.42;;;7.20;99.90;;;;;;5062321;28;20040;-67
2023/01/03 11:30:36;;;;;;;78.75;30.95;;;7.00;99.90;;;;;;5058678;28;20017;-68
2023/01/03 11:33:21;;;;;;;65.38;29.92;;;6.90;99.90;;;;;;5017836;28;20037;-67
2023/01/03 11:35:46;;;;;;;;;;;6.80;99.90;;;;;;5063096;28;20041;-69
2023/01/03 11:38:33;;;;;;;76.18;33.17;;;6.60;99.90;;;;;;5062415;28;19940;-68
2023/01/03 11:41:17;;;;;;;75.55;31.10;;;6.50;99.90;;;;;;5055436;28;20048;-68
2023/01/03 11:44:14;;;;;;;81.93;33.35;;;6.40;99.90;;;;;;5032942;28;20098;-70
2023/01/03 11:46:51;;;;;;;81.35;33.75;;;6.30;99.90;;;;;;5054620;28;20021;-68
2023/01/03 11:49:46;;;;;;;87.22;35.78;;;6.30;99.90;;;;;;5055655;28;20146;-67
2023/01/03 11:52:28;;;;;;;;;;;6.20;99.90;;;;;;5057496;28;20037;-69
2023/01/03 11:55:14;;;;;;;90.00;38.65;;;6.20;99.90;;;;;;5053853;28;19921;-69
2023/01/03 11:58:20;;;;;;;96.45;40.70;;;6.20;99.90;;;;;;5055693;28;20080;-69
2023/01/03 12:01:12;;;;;;;96.38;39.70;;;6.20;99.90;;;;;;5054532;28;20029;-69
2023/01/03 12:04:06;;;;;;;93.40;40.40;;;6.20;99.90;;;;;;5053218;28;20047;-69
2023/01/03 12:06:38;;;;;;;93.45;39.83;;;6.20;99.90;;;;;;5053279;28;20545;-67
2023/01/03 12:09:24;;;;;;;86.82;35.00;;;6.20;99.90;;;;;;5053854;28;20029;-68
2023/01/03 12:12:18;;;;;;;88.63;36.50;;;6.20;99.90;;;;;;5043458;28;20032;-68
2023/01/03 12:14:52;;;;;;;79.15;32.95;;;6.20;99.90;;;;;;5049581;28;20124;-69
2023/01/03 12:17:41;;;;;;;73.70;31.40;;;6.20;99.90;;;;;;5057331;28;20036;-67
2023/01/03 12:20:39;;;;;;;59.00;25.48;;;6.30;99.90;;;;;;5050703;28;20120;-68
2023/01/03 12:23:39;;;;;;;56.95;24.17;;;6.30;99.90;;;;;;5031873;28;20045;-68
2023/01/03 12:26:08;;;;;;;64.53;26.95;;;6.40;99.90;;;;;;5039392;28;20055;-70
2023/01/03 12:28:40;;;;;;;58.47;24.75;;;6.70;99.90;;;;;;5039938;28;20017;-68
2023/01/03 12:31:34;;;;;;;54.50;25.73;;;6.80;99.90;;;;;;5038264;28;20021;-68
2023/01/03 12:34:30;;;;;;;62.50;25.65;;;6.80;99.90;;;;;;5038268;28;20025;-68
2023/01/03 12:37:18;;;;;;;69.10;31.15;;;6.70;99.90;;;;;;5039315;28;20033;-68
2023/01/03 12:40:12;;;;;;;61.97;27.17;;;6.60;99.90;;;;;;5038718;28;20101;-69
2023/01/03 12:42:56;;;;;;;56.50;24.05;;;6.60;99.90;;;;;;5021442;28;20041;-68
2023/01/03 12:45:31;;;;;;;51.35;24.58;;;6.50;99.90;;;;;;5039659;28;20114;-68
2023/01/03 12:48:32;;;;;;;62.38;26.02;;;6.50;99.90;;;;;;5038303;28;20033;-68
2023/01/03 12:50:57;;;;;;;61.13;26.48;;;6.80;99.90;;;;;;5038441;28;20025;-68
2023/01/03 12:53:42;;;;;;;58.50;25.60;;;7.00;99.90;;;;;;5039057;28;20026;-68
2023/01/03 12:56:19;;;;;;;58.13;25.55;;;7.10;99.90;;;;;;5037206;28;20091;-70
2023/01/03 12:59:27;;;;;;;51.63;22.38;;;7.00;99.90;;;;;;5039530;28;20029;-68
2023/01/03 13:02:05;;;;;;;64.78;27.35;;;7.00;99.90;;;;;;5033683;28;20045;-69
2023/01/03 13:04:38;;;;;;;67.25;27.88;;;6.80;99.90;;;;;;5034272;28;20043;-67
2023/01/03 13:07:28;;;;;;;73.65;28.63;;;6.70;99.90;;;;;;5038223;28;20105;-68
2023/01/03 13:10:00;;;;;;;63.60;28.17;;;6.60;99.90;;;;;;5020257;28;20081;-68
2023/01/03 13:12:29;;;;;;;70.07;29.13;;;6.50;99.90;;;;;;5035120;28;20040;-68
2023/01/03 13:15:13;;;;;;;70.30;29.52;;;6.40;99.90;;;;;;5038292;28;20048;-67
2023/01/03 13:17:45;;;;;;;;;;;6.40;99.90;;;;;;5040330;28;20089;-69
2023/01/03 13:20:30;;;;;;;64.28;25.73;;;6.30;99.90;;;;;;5038559;28;19915;-66
2023/01/03 13:22:59;;;;;;;;;;;6.40;99.90;;;;;;5037992;28;20125;-68
2023/01/03 13:25:30;;;;;;;66.45;29.00;;;6.30;99.90;;;;;;5039485;28;19916;-67
2023/01/03 13:27:58;;;;;;;80.18;33.03;;;6.30;99.90;;;;;;5039492;28;20034;-68
2023/01/03 13:30:30;;;;;;;72.32;31.20;;;6.30;99.90;;;;;;5021765;28;20048;-68
2023/01/03 13:33:11;;;;;;;76.40;30.58;;;6.30;99.90;;;;;;5039268;28;20028;-68
2023/01/03 13:35:48;;;;;;;71.85;30.58;;;6.30;99.90;;;;;;5023591;28;20040;-70
2023/01/03 13:38:31;;;;;;;82.82;32.60;;;6.40;99.90;;;;;;5037057;28;20037;-68
2023/01/03 13:41:04;;;;;;;70.63;30.60;;;6.30;99.90;;;;;;5014170;28;20048;-68
2023/01/03 13:43:35;;;;;;;75.10;32.70;;;6.30;99.90;;;;;;5023372;28;21342;-68
2023/01/03 13:46:09;;;;;;;72.68;31.60;;;6.30;99.90;;;;;;5034818;28;20030;-69
2023/01/03 13:48:38;;;;;;;76.43;34.30;;;6.30;99.90;;;;;;5037504;28;20022;-68
2023/01/03 13:51:15;;;;;;;74.10;31.40;;;6.30;99.90;;;;;;5039749;28;20039;-68
2023/01/03 13:54:21;;;;;;;68.45;28.70;;;6.40;99.90;;;;;;5038927;28;20029;-70
2023/01/03 13:56:47;;;;;;;82.97;28.33;;;6.40;99.90;;;;;;5021664;28;20101;-67
2023/01/03 13:59:18;;;;;;;83.65;32.92;;;6.40;99.90;;;;;;5039453;28;20057;-70
2023/01/03 14:02:07;;;;;;;73.53;31.88;;;6.30;99.90;;;;;;5035450;28;20037;-67
2023/01/03 14:04:39;;;;;;;72.65;30.50;;;6.30;99.90;;;;;;5037203;28;20021;-68
2023/01/03 14:07:10;;;;;;;76.03;31.45;;;6.30;99.90;;;;;;5038661;28;20029;-70
2023/01/03 14:09:38;;;;;;;71.22;31.88;;;6.40;99.90;;;;;;5037406;28;20081;-67